sensor_id;sensor_type;location;lat;lon;timestamp;P1;durP1;ratioP1;P2;durP2;ratioP2
17340;SDS011;8788;49.930;8.660;2022-12-29T04:04:02;1.08;;;0.63;;
17340;SDS011;8788;49.930;8.660;2022-12-29T04:06:30;0.57;;;0.50;;
17340;SDS011;8788;49.930;8.660;2022-12-29T04:09:01;1.48;;;0.65;;
17340;SDS011;8788;49.930;8.660;2022-12-29T04:11:32;1.10;;;0.70;;
17340;SDS011;8788;49.930;8.660;2022-12-29T04:14:00;1.77;;;0.65;;
17340;SDS011;8788;49.930;8.660;2022-12-29T04:16:29;0.80;;;0.57;;
17340;SDS011;8788;49.930;8.660;2022-12-29T04:18:56;0.73;;;0.73;;
17340;SDS011;8788;49.930;8.660;2022-12-29T04:21:25;0.60;;;0.60;;
17340;SDS011;8788;49.930;8.660;2022-12-29T04:23:53;1.77;;;0.70;;
17340;SDS011;8788;49.930;8.660;2022-12-29T04:26:20;1.17;;;0.70;;
17340;SDS011;8788;49.930;8.660;2022-12-29T04:29:00;0.73;;;0.50;;
17340;SDS011;8788;49.930;8.660;2022-12-29T04:31:38;1.90;;;0.70;;
17340;SDS011;8788;49.930;8.660;2022-12-29T04:34:06;1.83;;;0.77;;
17340;SDS011;8788;49.930;8.660;2022-12-29T04:36:34;2.20;;;1.08;;
17340;SDS011;8788;49.930;8.660;2022-12-29T04:39:01;3.33;;;0.93;;
17340;SDS011;8788;49.930;8.660;2022-12-29T04:41:31;1.83;;;0.98;;
17340;SDS011;8788;49.930;8.660;2022-12-29T04:43:58;2.05;;;0.93;;
17340;SDS011;8788;49.930;8.660;2022-12-29T04:47:00;0.88;;;0.88;;
17340;SDS011;8788;49.930;8.660;2022-12-29T04:49:38;1.55;;;0.85;;
17340;SDS011;8788;49.930;8.660;2022-12-29T04:52:42;0.88;;;0.80;;
17340;SDS011;8788;49.930;8.660;2022-12-29T04:55:11;2.40;;;0.63;;
17340;SDS011;8788;49.930;8.660;2022-12-29T04:57:39;0.70;;;0.70;;
17340;SDS011;8788;49.930;8.660;2022-12-29T05:00:08;1.98;;;0.50;;
17340;SDS011;8788;49.930;8.660;2022-12-29T05:02:36;1.08;;;0.75;;
17340;SDS011;8788;49.930;8.660;2022-12-29T05:05:04;3.10;;;0.80;;
17340;SDS011;8788;49.930;8.660;2022-12-29T05:07:34;0.90;;;0.88;;
17340;SDS011;8788;49.930;8.660;2022-12-29T05:10:02;0.77;;;0.60;;
17340;SDS011;8788;49.930;8.660;2022-12-29T05:12:31;0.93;;;0.70;;
17340;SDS011;8788;49.930;8.660;2022-12-29T05:15:00;0.70;;;0.68;;
17340;SDS011;8788;49.930;8.660;2022-12-29T05:17:28;1.40;;;0.60;;
17340;SDS011;8788;49.930;8.660;2022-12-29T05:19:55;0.65;;;0.65;;
17340;SDS011;8788;49.930;8.660;2022-12-29T05:22:23;0.47;;;0.47;;
17340;SDS011;8788;49.930;8.660;2022-12-29T05:24:51;1.02;;;0.73;;
17340;SDS011;8788;49.930;8.660;2022-12-29T05:27:20;0.95;;;0.70;;
17340;SDS011;8788;49.930;8.660;2022-12-29T05:30:08;2.08;;;0.90;;
17340;SDS011;8788;49.930;8.660;2022-12-29T05:32:36;2.50;;;0.93;;
17340;SDS011;8788;49.930;8.660;2022-12-29T05:35:04;4.15;;;0.90;;
17340;SDS011;8788;49.930;8.660;2022-12-29T05:37:32;1.00;;;0.63;;
17340;SDS011;8788;49.930;8.660;2022-12-29T05:39:59;0.88;;;0.88;;
17340;SDS011;8788;49.930;8.660;2022-12-29T05:42:28;3.95;;;0.70;;
17340;SDS011;8788;49.930;8.660;2022-12-29T05:45:16;0.85;;;0.70;;
17340;SDS011;8788;49.930;8.660;2022-12-29T05:47:56;0.50;;;0.50;;
17340;SDS011;8788;49.930;8.660;2022-12-29T05:51:02;0.55;;;0.50;;
17340;SDS011;8788;49.930;8.660;2022-12-29T05:53:45;0.55;;;0.55;;
17340;SDS011;8788;49.930;8.660;2022-12-29T05:56:12;1.90;;;0.63;;
17340;SDS011;8788;49.930;8.660;2022-12-29T05:58:41;0.90;;;0.63;;
17340;SDS011;8788;49.930;8.660;2022-12-29T06:01:08;1.15;;;0.60;;
17340;SDS011;8788;49.930;8.660;2022-12-29T06:03:36;1.70;;;0.63;;
17340;SDS011;8788;49.930;8.660;2022-12-29T06:06:03;0.75;;;0.60;;
17340;SDS011;8788;49.930;8.660;2022-12-29T06:08:31;1.85;;;0.63;;
17340;SDS011;8788;49.930;8.660;2022-12-29T06:10:58;2.30;;;0.85;;
17340;SDS011;8788;49.930;8.660;2022-12-29T06:13:26;1.15;;;0.43;;
17340;SDS011;8788;49.930;8.660;2022-12-29T06:15:56;3.80;;;0.70;;
17340;SDS011;8788;49.930;8.660;2022-12-29T06:18:25;0.80;;;0.70;;
17340;SDS011;8788;49.930;8.660;2022-12-29T06:20:52;0.73;;;0.70;;
17340;SDS011;8788;49.930;8.660;2022-12-29T06:23:19;0.63;;;0.63;;
17340;SDS011;8788;49.930;8.660;2022-12-29T06:25:47;0.50;;;0.50;;
17340;SDS011;8788;49.930;8.660;2022-12-29T06:28:14;1.50;;;0.70;;
17340;SDS011;8788;49.930;8.660;2022-12-29T06:30:43;1.52;;;0.80;;
17340;SDS011;8788;49.930;8.660;2022-12-29T06:33:12;2.15;;;0.68;;
17340;SDS011;8788;49.930;8.660;2022-12-29T06:35:39;0.68;;;0.68;;
17340;SDS011;8788;49.930;8.660;2022-12-29T06:38:07;1.38;;;0.98;;
17340;SDS011;8788;49.930;8.660;2022-12-29T06:40:35;1.17;;;0.60;;
17340;SDS011;8788;49.930;8.660;2022-12-29T06:43:20;0.65;;;0.65;;
17340;SDS011;8788;49.930;8.660;2022-12-29T06:45:58;1.45;;;0.60;;
17340;SDS011;8788;49.930;8.660;2022-12-29T06:48:27;3.00;;;0.85;;
17340;SDS011;8788;49.930;8.660;2022-12-29T06:50:54;3.95;;;1.08;;
17340;SDS011;8788;49.930;8.660;2022-12-29T06:53:21;1.40;;;0.98;;
17340;SDS011;8788;49.930;8.660;2022-12-29T06:55:48;3.13;;;1.58;;
17340;SDS011;8788;49.930;8.660;2022-12-29T06:58:15;0.85;;;0.85;;
17340;SDS011;8788;49.930;8.660;2022-12-29T07:00:42;1.67;;;1.10;;
17340;SDS011;8788;49.930;8.660;2022-12-29T07:03:09;3.03;;;1.02;;
17340;SDS011;8788;49.930;8.660;2022-12-29T07:05:38;1.85;;;0.82;;
17340;SDS011;8788;49.930;8.660;2022-12-29T07:08:05;2.30;;;0.90;;
17340;SDS011;8788;49.930;8.660;2022-12-29T07:10:32;1.30;;;1.10;;
17340;SDS011;8788;49.930;8.660;2022-12-29T07:12:59;0.98;;;0.80;;
17340;SDS011;8788;49.930;8.660;2022-12-29T07:15:26;5.82;;;1.52;;
17340;SDS011;8788;49.930;8.660;2022-12-29T07:17:53;1.80;;;0.90;;
17340;SDS011;8788;49.930;8.660;2022-12-29T07:20:20;4.03;;;1.05;;
17340;SDS011;8788;49.930;8.660;2022-12-29T07:22:49;1.10;;;0.85;;
17340;SDS011;8788;49.930;8.660;2022-12-29T07:25:16;1.05;;;0.70;;
17340;SDS011;8788;49.930;8.660;2022-12-29T07:27:43;1.15;;;1.00;;
17340;SDS011;8788;49.930;8.660;2022-12-29T07:30:10;2.10;;;0.88;;
17340;SDS011;8788;49.930;8.660;2022-12-29T07:32:38;4.82;;;1.30;;
17340;SDS011;8788;49.930;8.660;2022-12-29T07:35:05;3.92;;;0.90;;
17340;SDS011;8788;49.930;8.660;2022-12-29T07:37:33;2.28;;;0.98;;
17340;SDS011;8788;49.930;8.660;2022-12-29T07:40:01;2.60;;;0.90;;
17340;SDS011;8788;49.930;8.660;2022-12-29T07:42:30;2.00;;;1.35;;
17340;SDS011;8788;49.930;8.660;2022-12-29T07:44:58;1.80;;;1.00;;
17340;SDS011;8788;49.930;8.660;2022-12-29T07:47:46;1.73;;;1.08;;
17340;SDS011;8788;49.930;8.660;2022-12-29T07:50:14;1.27;;;0.77;;
17340;SDS011;8788;49.930;8.660;2022-12-29T07:52:42;3.30;;;1.20;;
17340;SDS011;8788;49.930;8.660;2022-12-29T07:55:11;2.08;;;1.10;;
17340;SDS011;8788;49.930;8.660;2022-12-29T07:57:38;1.48;;;1.10;;
17340;SDS011;8788;49.930;8.660;2022-12-29T08:00:06;1.45;;;1.10;;
17340;SDS011;8788;49.930;8.660;2022-12-29T08:02:37;2.70;;;1.20;;
17340;SDS011;8788;49.930;8.660;2022-12-29T08:05:04;2.15;;;0.95;;
17340;SDS011;8788;49.930;8.660;2022-12-29T08:07:32;2.38;;;0.77;;
17340;SDS011;8788;49.930;8.660;2022-12-29T08:09:59;0.80;;;0.80;;
17340;SDS011;8788;49.930;8.660;2022-12-29T08:12:28;3.70;;;1.90;;
17340;SDS011;8788;49.930;8.660;2022-12-29T08:14:55;1.90;;;0.80;;
17340;SDS011;8788;49.930;8.660;2022-12-29T08:17:22;2.88;;;0.88;;
17340;SDS011;8788;49.930;8.660;2022-12-29T08:19:49;2.10;;;0.93;;
17340;SDS011;8788;49.930;8.660;2022-12-29T08:22:16;0.88;;;0.82;;
17340;SDS011;8788;49.930;8.660;2022-12-29T08:24:43;1.77;;;1.05;;
17340;SDS011;8788;49.930;8.660;2022-12-29T08:27:10;2.83;;;1.05;;
17340;SDS011;8788;49.930;8.660;2022-12-29T08:29:39;2.63;;;1.00;;
17340;SDS011;8788;49.930;8.660;2022-12-29T08:32:06;1.77;;;0.88;;
17340;SDS011;8788;49.930;8.660;2022-12-29T08:34:33;1.30;;;1.05;;
17340;SDS011;8788;49.930;8.660;2022-12-29T08:37:00;1.25;;;1.08;;
17340;SDS011;8788;49.930;8.660;2022-12-29T08:39:27;1.55;;;0.98;;
17340;SDS011;8788;49.930;8.660;2022-12-29T08:41:54;1.35;;;1.25;;
17340;SDS011;8788;49.930;8.660;2022-12-29T08:44:22;1.20;;;1.10;;
17340;SDS011;8788;49.930;8.660;2022-12-29T08:46:50;1.83;;;1.05;;
17340;SDS011;8788;49.930;8.660;2022-12-29T08:49:17;2.38;;;0.90;;
17340;SDS011;8788;49.930;8.660;2022-12-29T08:51:44;2.67;;;1.20;;
17340;SDS011;8788;49.930;8.660;2022-12-29T08:54:12;3.88;;;1.02;;
17340;SDS011;8788;49.930;8.660;2022-12-29T08:56:39;0.80;;;0.80;;
17340;SDS011;8788;49.930;8.660;2022-12-29T08:59:06;3.30;;;1.00;;
17340;SDS011;8788;49.930;8.660;2022-12-29T09:01:34;3.45;;;1.20;;
17340;SDS011;8788;49.930;8.660;2022-12-29T09:04:06;3.08;;;0.90;;
17340;SDS011;8788;49.930;8.660;2022-12-29T09:06:34;1.83;;;1.40;;
17340;SDS011;8788;49.930;8.660;2022-12-29T09:09:01;2.70;;;1.70;;
17340;SDS011;8788;49.930;8.660;2022-12-29T09:11:29;2.30;;;1.05;;
17340;SDS011;8788;49.930;8.660;2022-12-29T09:13:56;1.10;;;1.00;;
17340;SDS011;8788;49.930;8.660;2022-12-29T09:16:24;3.28;;;1.50;;
17340;SDS011;8788;49.930;8.660;2022-12-29T09:18:52;3.17;;;2.55;;
17340;SDS011;8788;49.930;8.660;2022-12-29T09:21:20;4.68;;;1.40;;
17340;SDS011;8788;49.930;8.660;2022-12-29T09:23:48;7.38;;;1.20;;
17340;SDS011;8788;49.930;8.660;2022-12-29T09:26:15;4.88;;;1.70;;
17340;SDS011;8788;49.930;8.660;2022-12-29T09:28:42;2.85;;;1.77;;
17340;SDS011;8788;49.930;8.660;2022-12-29T09:31:10;1.50;;;1.05;;
17340;SDS011;8788;49.930;8.660;2022-12-29T09:33:38;2.30;;;1.13;;
17340;SDS011;8788;49.930;8.660;2022-12-29T09:36:05;1.10;;;1.00;;
17340;SDS011;8788;49.930;8.660;2022-12-29T09:38:34;2.03;;;0.98;;
17340;SDS011;8788;49.930;8.660;2022-12-29T09:41:04;1.83;;;1.10;;
17340;SDS011;8788;49.930;8.660;2022-12-29T09:46:40;1.60;;;1.50;;
17340;SDS011;8788;49.930;8.660;2022-12-29T09:49:14;2.22;;;1.20;;
17340;SDS011;8788;49.930;8.660;2022-12-29T09:51:48;2.15;;;1.52;;
17340;SDS011;8788;49.930;8.660;2022-12-29T09:54:33;2.58;;;1.33;;
17340;SDS011;8788;49.930;8.660;2022-12-29T09:57:18;1.45;;;1.35;;
17340;SDS011;8788;49.930;8.660;2022-12-29T09:59:51;3.00;;;1.00;;
17340;SDS011;8788;49.930;8.660;2022-12-29T10:02:29;2.88;;;1.15;;
17340;SDS011;8788;49.930;8.660;2022-12-29T10:05:00;1.67;;;1.35;;
17340;SDS011;8788;49.930;8.660;2022-12-29T10:07:30;1.35;;;1.20;;
17340;SDS011;8788;49.930;8.660;2022-12-29T10:10:14;1.90;;;1.30;;
17340;SDS011;8788;49.930;8.660;2022-12-29T10:12:58;2.70;;;1.25;;
17340;SDS011;8788;49.930;8.660;2022-12-29T10:15:40;1.77;;;1.27;;
17340;SDS011;8788;49.930;8.660;2022-12-29T10:18:29;4.68;;;1.20;;
17340;SDS011;8788;49.930;8.660;2022-12-29T10:21:08;1.85;;;1.58;;
17340;SDS011;8788;49.930;8.660;2022-12-29T10:23:42;3.10;;;1.92;;
17340;SDS011;8788;49.930;8.660;2022-12-29T10:26:14;2.08;;;1.33;;
17340;SDS011;8788;49.930;8.660;2022-12-29T10:28:44;2.22;;;1.15;;
17340;SDS011;8788;49.930;8.660;2022-12-29T10:31:16;2.15;;;0.80;;
17340;SDS011;8788;49.930;8.660;2022-12-29T10:33:48;1.85;;;0.88;;
17340;SDS011;8788;49.930;8.660;2022-12-29T10:36:19;1.60;;;0.93;;
17340;SDS011;8788;49.930;8.660;2022-12-29T10:38:53;1.48;;;1.38;;
17340;SDS011;8788;49.930;8.660;2022-12-29T10:41:34;2.53;;;0.80;;
17340;SDS011;8788;49.930;8.660;2022-12-29T10:44:07;0.98;;;0.50;;
17340;SDS011;8788;49.930;8.660;2022-12-29T10:46:37;0.90;;;0.68;;
17340;SDS011;8788;49.930;8.660;2022-12-29T10:49:05;1.95;;;0.90;;
17340;SDS011;8788;49.930;8.660;2022-12-29T10:51:37;3.40;;;0.90;;
17340;SDS011;8788;49.930;8.660;2022-12-29T10:54:10;1.10;;;0.80;;
17340;SDS011;8788;49.930;8.660;2022-12-29T10:56:45;3.33;;;1.52;;
17340;SDS011;8788;49.930;8.660;2022-12-29T10:59:17;0.80;;;0.77;;
17340;SDS011;8788;49.930;8.660;2022-12-29T11:01:50;1.40;;;1.10;;
17340;SDS011;8788;49.930;8.660;2022-12-29T11:04:31;4.15;;;1.73;;
17340;SDS011;8788;49.930;8.660;2022-12-29T11:07:09;6.15;;;1.60;;
17340;SDS011;8788;49.930;8.660;2022-12-29T11:09:38;5.00;;;1.25;;
17340;SDS011;8788;49.930;8.660;2022-12-29T11:12:22;1.85;;;1.25;;
17340;SDS011;8788;49.930;8.660;2022-12-29T11:15:01;1.00;;;0.85;;
17340;SDS011;8788;49.930;8.660;2022-12-29T11:17:42;1.70;;;1.00;;
17340;SDS011;8788;49.930;8.660;2022-12-29T11:23:04;3.17;;;1.67;;
17340;SDS011;8788;49.930;8.660;2022-12-29T11:25:49;1.33;;;1.23;;
17340;SDS011;8788;49.930;8.660;2022-12-29T11:28:34;1.48;;;1.08;;
17340;SDS011;8788;49.930;8.660;2022-12-29T11:31:05;1.10;;;1.00;;
17340;SDS011;8788;49.930;8.660;2022-12-29T11:33:34;2.30;;;0.70;;
17340;SDS011;8788;49.930;8.660;2022-12-29T11:36:03;3.97;;;1.00;;
17340;SDS011;8788;49.930;8.660;2022-12-29T11:38:33;1.80;;;0.82;;
17340;SDS011;8788;49.930;8.660;2022-12-29T11:41:02;0.85;;;0.50;;
17340;SDS011;8788;49.930;8.660;2022-12-29T11:43:30;2.25;;;0.65;;
17340;SDS011;8788;49.930;8.660;2022-12-29T11:46:01;1.98;;;0.60;;
17340;SDS011;8788;49.930;8.660;2022-12-29T11:48:31;0.57;;;0.57;;
17340;SDS011;8788;49.930;8.660;2022-12-29T11:51:05;0.60;;;0.60;;
17340;SDS011;8788;49.930;8.660;2022-12-29T11:53:35;8.02;;;2.40;;
17340;SDS011;8788;49.930;8.660;2022-12-29T11:56:06;10.45;;;3.90;;
17340;SDS011;8788;49.930;8.660;2022-12-29T11:58:37;12.32;;;3.78;;
17340;SDS011;8788;49.930;8.660;2022-12-29T12:01:06;15.18;;;4.80;;
17340;SDS011;8788;49.930;8.660;2022-12-29T12:03:40;25.20;;;7.53;;
17340;SDS011;8788;49.930;8.660;2022-12-29T12:06:12;3.85;;;2.53;;
17340;SDS011;8788;49.930;8.660;2022-12-29T12:08:44;1.35;;;1.23;;
17340;SDS011;8788;49.930;8.660;2022-12-29T12:11:15;0.80;;;0.75;;
17340;SDS011;8788;49.930;8.660;2022-12-29T12:13:47;2.45;;;0.90;;
17340;SDS011;8788;49.930;8.660;2022-12-29T12:16:31;1.83;;;0.95;;
17340;SDS011;8788;49.930;8.660;2022-12-29T12:19:03;0.52;;;0.40;;
17340;SDS011;8788;49.930;8.660;2022-12-29T12:21:41;1.60;;;0.82;;
17340;SDS011;8788;49.930;8.660;2022-12-29T12:24:14;1.13;;;0.60;;
17340;SDS011;8788;49.930;8.660;2022-12-29T12:27:08;1.05;;;0.52;;
17340;SDS011;8788;49.930;8.660;2022-12-29T12:29:41;0.50;;;0.50;;
17340;SDS011;8788;49.930;8.660;2022-12-29T12:32:15;0.88;;;0.52;;
17340;SDS011;8788;49.930;8.660;2022-12-29T12:34:48;0.88;;;0.88;;
17340;SDS011;8788;49.930;8.660;2022-12-29T12:37:22;1.08;;;0.60;;
17340;SDS011;8788;49.930;8.660;2022-12-29T12:40:15;1.05;;;0.85;;
17340;SDS011;8788;49.930;8.660;2022-12-29T12:43:12;1.63;;;0.90;;
17340;SDS011;8788;49.930;8.660;2022-12-29T12:46:11;1.35;;;1.05;;
17340;SDS011;8788;49.930;8.660;2022-12-29T12:49:11;1.65;;;1.05;;
17340;SDS011;8788;49.930;8.660;2022-12-29T12:51:51;2.67;;;1.00;;
17340;SDS011;8788;49.930;8.660;2022-12-29T12:54:32;1.33;;;1.20;;
17340;SDS011;8788;49.930;8.660;2022-12-29T12:57:14;1.30;;;0.75;;
17340;SDS011;8788;49.930;8.660;2022-12-29T13:00:00;3.45;;;0.95;;
17340;SDS011;8788;49.930;8.660;2022-12-29T13:02:34;2.75;;;0.73;;
17340;SDS011;8788;49.930;8.660;2022-12-29T13:05:15;1.15;;;0.70;;
17340;SDS011;8788;49.930;8.660;2022-12-29T13:07:53;2.78;;;0.82;;
17340;SDS011;8788;49.930;8.660;2022-12-29T13:10:36;1.25;;;0.68;;
17340;SDS011;8788;49.930;8.660;2022-12-29T13:13:25;1.15;;;1.05;;
17340;SDS011;8788;49.930;8.660;2022-12-29T13:16:13;2.28;;;0.60;;
17340;SDS011;8788;49.930;8.660;2022-12-29T13:18:48;3.03;;;0.70;;
17340;SDS011;8788;49.930;8.660;2022-12-29T13:21:27;2.53;;;0.85;;
17340;SDS011;8788;49.930;8.660;2022-12-29T13:24:01;1.42;;;0.88;;
17340;SDS011;8788;49.930;8.660;2022-12-29T13:26:38;1.30;;;0.80;;
17340;SDS011;8788;49.930;8.660;2022-12-29T13:29:12;1.88;;;0.65;;
17340;SDS011;8788;49.930;8.660;2022-12-29T13:31:45;2.25;;;0.93;;
17340;SDS011;8788;49.930;8.660;2022-12-29T13:34:20;2.53;;;1.00;;
17340;SDS011;8788;49.930;8.660;2022-12-29T13:36:54;2.40;;;0.70;;
17340;SDS011;8788;49.930;8.660;2022-12-29T13:39:26;1.35;;;0.63;;
17340;SDS011;8788;49.930;8.660;2022-12-29T13:41:59;1.88;;;0.77;;
17340;SDS011;8788;49.930;8.660;2022-12-29T13:44:30;2.55;;;0.70;;
17340;SDS011;8788;49.930;8.660;2022-12-29T13:47:01;3.50;;;0.80;;
17340;SDS011;8788;49.930;8.660;2022-12-29T13:49:40;1.13;;;0.80;;
17340;SDS011;8788;49.930;8.660;2022-12-29T13:52:11;1.33;;;1.10;;
17340;SDS011;8788;49.930;8.660;2022-12-29T13:54:43;2.97;;;0.80;;
17340;SDS011;8788;49.930;8.660;2022-12-29T13:57:23;1.92;;;1.27;;
17340;SDS011;8788;49.930;8.660;2022-12-29T13:59:59;2.53;;;0.80;;
17340;SDS011;8788;49.930;8.660;2022-12-29T14:02:38;2.38;;;0.93;;
17340;SDS011;8788;49.930;8.660;2022-12-29T14:05:26;0.70;;;0.57;;
17340;SDS011;8788;49.930;8.660;2022-12-29T14:07:58;2.50;;;0.95;;
17340;SDS011;8788;49.930;8.660;2022-12-29T14:10:28;1.13;;;0.63;;
17340;SDS011;8788;49.930;8.660;2022-12-29T14:13:03;1.60;;;0.75;;
17340;SDS011;8788;49.930;8.660;2022-12-29T14:15:37;1.23;;;0.70;;
17340;SDS011;8788;49.930;8.660;2022-12-29T14:18:11;3.10;;;1.08;;
17340;SDS011;8788;49.930;8.660;2022-12-29T14:20:46;1.13;;;0.63;;
17340;SDS011;8788;49.930;8.660;2022-12-29T14:23:34;3.30;;;0.70;;
17340;SDS011;8788;49.930;8.660;2022-12-29T14:26:10;1.98;;;1.00;;
17340;SDS011;8788;49.930;8.660;2022-12-29T14:28:40;1.83;;;1.00;;
17340;SDS011;8788;49.930;8.660;2022-12-29T14:37:15;4.35;;;0.80;;
17340;SDS011;8788;49.930;8.660;2022-12-29T14:39:58;2.60;;;0.77;;
17340;SDS011;8788;49.930;8.660;2022-12-29T14:42:32;0.75;;;0.50;;
17340;SDS011;8788;49.930;8.660;2022-12-29T14:45:02;6.03;;;0.65;;
17340;SDS011;8788;49.930;8.660;2022-12-29T14:47:32;2.92;;;0.70;;
17340;SDS011;8788;49.930;8.660;2022-12-29T14:50:03;2.45;;;0.60;;
17340;SDS011;8788;49.930;8.660;2022-12-29T14:52:45;1.85;;;0.70;;
17340;SDS011;8788;49.930;8.660;2022-12-29T14:58:06;4.15;;;0.65;;
17340;SDS011;8788;49.930;8.660;2022-12-29T15:00:40;0.90;;;0.82;;
17340;SDS011;8788;49.930;8.660;2022-12-29T15:03:12;5.45;;;0.60;;
17340;SDS011;8788;49.930;8.660;2022-12-29T15:05:46;1.95;;;0.65;;
17340;SDS011;8788;49.930;8.660;2022-12-29T15:08:18;1.40;;;0.30;;
17340;SDS011;8788;49.930;8.660;2022-12-29T15:10:53;5.70;;;0.70;;
17340;SDS011;8788;49.930;8.660;2022-12-29T15:13:24;0.80;;;0.40;;
17340;SDS011;8788;49.930;8.660;2022-12-29T15:15:58;2.78;;;0.80;;
17340;SDS011;8788;49.930;8.660;2022-12-29T15:18:26;1.50;;;0.68;;
17340;SDS011;8788;49.930;8.660;2022-12-29T15:20:55;2.40;;;0.82;;
17340;SDS011;8788;49.930;8.660;2022-12-29T15:23:24;2.03;;;0.65;;
17340;SDS011;8788;49.930;8.660;2022-12-29T15:25:55;2.42;;;0.88;;
17340;SDS011;8788;49.930;8.660;2022-12-29T15:28:25;1.92;;;0.70;;
17340;SDS011;8788;49.930;8.660;2022-12-29T15:30:54;2.05;;;0.52;;
17340;SDS011;8788;49.930;8.660;2022-12-29T15:33:23;3.45;;;0.93;;
17340;SDS011;8788;49.930;8.660;2022-12-29T15:35:53;1.60;;;0.60;;
17340;SDS011;8788;49.930;8.660;2022-12-29T15:38:22;1.75;;;0.60;;
17340;SDS011;8788;49.930;8.660;2022-12-29T15:40:51;0.45;;;0.40;;
17340;SDS011;8788;49.930;8.660;2022-12-29T15:43:25;1.83;;;0.40;;
17340;SDS011;8788;49.930;8.660;2022-12-29T15:46:01;1.80;;;0.65;;
17340;SDS011;8788;49.930;8.660;2022-12-29T15:48:28;2.17;;;0.50;;
17340;SDS011;8788;49.930;8.660;2022-12-29T15:50:57;1.75;;;0.63;;
17340;SDS011;8788;49.930;8.660;2022-12-29T15:53:27;1.83;;;0.57;;
17340;SDS011;8788;49.930;8.660;2022-12-29T15:55:58;0.65;;;0.50;;
17340;SDS011;8788;49.930;8.660;2022-12-29T15:58:28;2.13;;;0.60;;
17340;SDS011;8788;49.930;8.660;2022-12-29T16:00:57;1.55;;;0.73;;
17340;SDS011;8788;49.930;8.660;2022-12-29T16:03:26;0.68;;;0.50;;
17340;SDS011;8788;49.930;8.660;2022-12-29T16:05:56;0.82;;;0.40;;
17340;SDS011;8788;49.930;8.660;2022-12-29T16:08:36;1.02;;;0.47;;
17340;SDS011;8788;49.930;8.660;2022-12-29T16:11:07;0.98;;;0.43;;
17340;SDS011;8788;49.930;8.660;2022-12-29T16:13:48;2.67;;;0.50;;
17340;SDS011;8788;49.930;8.660;2022-12-29T16:16:18;3.10;;;1.10;;
17340;SDS011;8788;49.930;8.660;2022-12-29T16:18:47;1.50;;;0.70;;
17340;SDS011;8788;49.930;8.660;2022-12-29T16:21:16;1.33;;;1.00;;
17340;SDS011;8788;49.930;8.660;2022-12-29T16:23:48;0.93;;;0.35;;
17340;SDS011;8788;49.930;8.660;2022-12-29T16:26:18;2.90;;;1.05;;
17340;SDS011;8788;49.930;8.660;2022-12-29T16:28:48;7.35;;;0.80;;
17340;SDS011;8788;49.930;8.660;2022-12-29T16:31:19;1.85;;;0.70;;
17340;SDS011;8788;49.930;8.660;2022-12-29T16:33:49;0.70;;;0.57;;
17340;SDS011;8788;49.930;8.660;2022-12-29T16:36:27;2.38;;;0.75;;
17340;SDS011;8788;49.930;8.660;2022-12-29T16:39:05;0.68;;;0.60;;
17340;SDS011;8788;49.930;8.660;2022-12-29T16:41:49;2.88;;;0.55;;
17340;SDS011;8788;49.930;8.660;2022-12-29T16:44:17;1.00;;;0.50;;
17340;SDS011;8788;49.930;8.660;2022-12-29T16:49:47;6.07;;;1.15;;
17340;SDS011;8788;49.930;8.660;2022-12-29T16:52:18;2.05;;;0.57;;
17340;SDS011;8788;49.930;8.660;2022-12-29T16:54:48;2.10;;;0.80;;
17340;SDS011;8788;49.930;8.660;2022-12-29T16:57:24;3.88;;;0.70;;
17340;SDS011;8788;49.930;8.660;2022-12-29T16:59:54;2.38;;;0.60;;
17340;SDS011;8788;49.930;8.660;2022-12-29T17:02:25;3.08;;;1.15;;
17340;SDS011;8788;49.930;8.660;2022-12-29T17:04:54;1.00;;;0.38;;
17340;SDS011;8788;49.930;8.660;2022-12-29T17:07:22;1.05;;;1.05;;
17340;SDS011;8788;49.930;8.660;2022-12-29T17:09:50;1.98;;;0.52;;
17340;SDS011;8788;49.930;8.660;2022-12-29T17:12:19;2.28;;;0.52;;
17340;SDS011;8788;49.930;8.660;2022-12-29T17:14:50;1.95;;;0.63;;
17340;SDS011;8788;49.930;8.660;2022-12-29T17:17:29;1.75;;;0.60;;
17340;SDS011;8788;49.930;8.660;2022-12-29T17:19:59;1.17;;;0.63;;
17340;SDS011;8788;49.930;8.660;2022-12-29T17:22:29;2.58;;;1.40;;
17340;SDS011;8788;49.930;8.660;2022-12-29T17:24:57;2.53;;;0.70;;
17340;SDS011;8788;49.930;8.660;2022-12-29T17:27:35;2.75;;;0.50;;
17340;SDS011;8788;49.930;8.660;2022-12-29T17:30:09;1.90;;;0.82;;
17340;SDS011;8788;49.930;8.660;2022-12-29T17:32:38;3.08;;;0.80;;
17340;SDS011;8788;49.930;8.660;2022-12-29T17:35:08;2.00;;;0.60;;
17340;SDS011;8788;49.930;8.660;2022-12-29T17:37:39;2.17;;;1.00;;
17340;SDS011;8788;49.930;8.660;2022-12-29T17:40:07;1.75;;;0.70;;
17340;SDS011;8788;49.930;8.660;2022-12-29T17:42:41;1.65;;;0.65;;
17340;SDS011;8788;49.930;8.660;2022-12-29T17:45:15;0.88;;;0.50;;
17340;SDS011;8788;49.930;8.660;2022-12-29T17:47:43;3.17;;;0.90;;
17340;SDS011;8788;49.930;8.660;2022-12-29T17:50:11;1.75;;;1.10;;
17340;SDS011;8788;49.930;8.660;2022-12-29T17:52:40;2.28;;;0.90;;
17340;SDS011;8788;49.930;8.660;2022-12-29T17:55:09;8.07;;;1.10;;
17340;SDS011;8788;49.930;8.660;2022-12-29T17:57:42;2.28;;;1.13;;
17340;SDS011;8788;49.930;8.660;2022-12-29T18:00:13;3.10;;;0.90;;
17340;SDS011;8788;49.930;8.660;2022-12-29T18:02:43;2.15;;;1.02;;
17340;SDS011;8788;49.930;8.660;2022-12-29T18:05:12;0.65;;;0.63;;
17340;SDS011;8788;49.930;8.660;2022-12-29T18:07:43;3.97;;;0.73;;
17340;SDS011;8788;49.930;8.660;2022-12-29T18:10:10;1.58;;;0.65;;
17340;SDS011;8788;49.930;8.660;2022-12-29T18:12:38;3.10;;;0.90;;
17340;SDS011;8788;49.930;8.660;2022-12-29T18:15:15;2.97;;;1.10;;
17340;SDS011;8788;49.930;8.660;2022-12-29T18:17:45;5.18;;;1.17;;
17340;SDS011;8788;49.930;8.660;2022-12-29T18:20:12;4.45;;;1.23;;
17340;SDS011;8788;49.930;8.660;2022-12-29T18:22:40;1.40;;;1.00;;
17340;SDS011;8788;49.930;8.660;2022-12-29T18:25:24;2.58;;;0.98;;
17340;SDS011;8788;49.930;8.660;2022-12-29T18:27:53;2.92;;;1.65;;
17340;SDS011;8788;49.930;8.660;2022-12-29T18:30:22;3.95;;;1.00;;
17340;SDS011;8788;49.930;8.660;2022-12-29T18:32:49;0.63;;;0.57;;
17340;SDS011;8788;49.930;8.660;2022-12-29T18:35:16;2.70;;;1.00;;
17340;SDS011;8788;49.930;8.660;2022-12-29T18:37:48;3.85;;;1.13;;
17340;SDS011;8788;49.930;8.660;2022-12-29T18:40:15;1.95;;;0.80;;
17340;SDS011;8788;49.930;8.660;2022-12-29T18:42:43;1.88;;;0.60;;
17340;SDS011;8788;49.930;8.660;2022-12-29T18:45:17;2.75;;;0.80;;
17340;SDS011;8788;49.930;8.660;2022-12-29T18:47:48;2.40;;;0.82;;
17340;SDS011;8788;49.930;8.660;2022-12-29T18:50:15;3.22;;;0.80;;
17340;SDS011;8788;49.930;8.660;2022-12-29T18:52:43;1.42;;;0.50;;
17340;SDS011;8788;49.930;8.660;2022-12-29T18:55:11;1.63;;;1.02;;
17340;SDS011;8788;49.930;8.660;2022-12-29T18:57:40;6.07;;;1.52;;
17340;SDS011;8788;49.930;8.660;2022-12-29T19:00:08;3.42;;;1.02;;
17340;SDS011;8788;49.930;8.660;2022-12-29T19:02:36;5.03;;;1.00;;
17340;SDS011;8788;49.930;8.660;2022-12-29T19:05:05;4.30;;;1.08;;
17340;SDS011;8788;49.930;8.660;2022-12-29T19:07:44;9.95;;;1.52;;
17340;SDS011;8788;49.930;8.660;2022-12-29T19:10:11;2.80;;;1.05;;
17340;SDS011;8788;49.930;8.660;2022-12-29T19:12:38;3.13;;;1.42;;
17340;SDS011;8788;49.930;8.660;2022-12-29T19:15:05;8.75;;;1.17;;
17340;SDS011;8788;49.930;8.660;2022-12-29T19:17:37;2.15;;;0.70;;
17340;SDS011;8788;49.930;8.660;2022-12-29T19:20:06;6.00;;;0.70;;
17340;SDS011;8788;49.930;8.660;2022-12-29T19:22:44;1.75;;;0.90;;
17340;SDS011;8788;49.930;8.660;2022-12-29T19:25:11;2.70;;;0.70;;
17340;SDS011;8788;49.930;8.660;2022-12-29T19:27:38;2.83;;;0.98;;
17340;SDS011;8788;49.930;8.660;2022-12-29T19:30:05;2.70;;;0.95;;
17340;SDS011;8788;49.930;8.660;2022-12-29T19:32:34;4.65;;;1.15;;
17340;SDS011;8788;49.930;8.660;2022-12-29T19:35:01;3.45;;;1.23;;
17340;SDS011;8788;49.930;8.660;2022-12-29T19:37:30;3.78;;;1.00;;
17340;SDS011;8788;49.930;8.660;2022-12-29T19:40:00;3.50;;;0.95;;
17340;SDS011;8788;49.930;8.660;2022-12-29T19:42:27;4.88;;;1.35;;
17340;SDS011;8788;49.930;8.660;2022-12-29T19:44:54;3.47;;;1.33;;
17340;SDS011;8788;49.930;8.660;2022-12-29T19:47:21;4.78;;;1.10;;
17340;SDS011;8788;49.930;8.660;2022-12-29T19:49:48;4.53;;;1.17;;